Last 24 Hours

Red Mountain

10 Minute Data | America/Los_Angeles
as of 5/2/26 6:37 PM PDT
Date & Time Temp (°F) Dew Pt (°F) RH (%) Wind Spd (mph) Wind Dir (°) Wind Gust (mph) Wind Gst Dir (°) Daily Max Temp (°F) Daily Min Temp (°F)
5/2/26 - 1830 66.7 33.3 29 12.1 SW | 236 16.4 SW | 233 72.0 62.2
5/2/26 - 1820 66.6 34.3 30 13.8 WSW | 240 18.0 WSW | 238 72.0 62.2
5/2/26 - 1810 66.6 37.0 34 13.8 WSW | 239 18.8 WSW | 244 72.0 62.2
5/2/26 - 1800 67.0 39.5 37 12.5 WSW | 239 18.3 WSW | 248 72.0 62.2
5/2/26 - 1750 66.9 41.3 39 11.8 SW | 236 17.0 SW | 228 72.0 62.2
5/2/26 - 1740 66.4 42.3 42 10.9 WSW | 237 15.6 SW | 214 72.0 62.2
5/2/26 - 1730 66.6 45.2 46 12.2 WSW | 238 17.2 SW | 221 72.0 62.2
5/2/26 - 1720 66.8 45.7 46 12.5 WSW | 238 18.8 W | 262 72.0 62.2
5/2/26 - 1710 68.8 42.0 38 12.2 WSW | 238 18.3 WSW | 248 72.0 62.2
5/2/26 - 1700 68.8 42.0 38 11.7 SW | 236 17.8 SW | 228 72.0 62.2
5/2/26 - 1650 69.9 41.2 35 10.6 SW | 235 16.4 W | 274 72.0 62.2
5/2/26 - 1640 69.6 40.1 34 11.0 WSW | 237 21.8 SW | 223 72.0 62.2
5/2/26 - 1630 69.1 39.2 33 12.7 SW | 234 21.1 WSW | 249 72.0 62.2
5/2/26 - 1620 69.3 38.2 32 13.2 WSW | 238 18.6 WSW | 239 72.0 62.2
5/2/26 - 1610 69.4 38.5 32 12.5 WSW | 238 18.6 SW | 228 72.0 62.2
5/2/26 - 1600 69.2 40.0 35 14.2 SW | 234 22.1 WSW | 250 72.0 62.2
5/2/26 - 1550 69.0 40.5 35 15.1 WSW | 238 22.8 SW | 233 72.0 62.2
5/2/26 - 1540 70.4 42.1 36 10.8 SW | 236 20.4 WSW | 239 72.0 62.2
5/2/26 - 1530 69.5 42.1 37 13.4 WSW | 237 21.1 SW | 228 72.0 62.2
5/2/26 - 1520 70.2 43.1 38 13.8 WSW | 247 21.0 WSW | 252 72.0 62.2
5/2/26 - 1510 69.8 40.3 34 14.4 WSW | 246 22.3 WSW | 253 72.0 62.2
5/2/26 - 1500 71.0 40.5 33 13.0 SW | 235 21.3 WSW | 249 72.0 62.2
5/2/26 - 1450 70.1 39.8 33 14.4 WSW | 244 20.5 W | 260 71.6 62.2
5/2/26 - 1440 70.5 40.9 34 12.1 W | 269 19.1 W | 267 71.6 62.2
5/2/26 - 1430 70.0 42.4 37 13.4 WNW | 282 19.0 WNW | 282 71.6 62.2
5/2/26 - 1420 69.1 43.0 39 12.5 W | 279 18.0 W | 268 71.6 62.2
5/2/26 - 1410 69.1 43.6 40 13.0 W | 269 18.8 WSW | 246 71.6 62.2
5/2/26 - 1400 68.5 43.0 40 14.4 W | 265 21.2 WSW | 252 71.6 62.2
5/2/26 - 1350 68.3 43.8 41 13.5 W | 280 18.8 W | 276 71.6 62.2
5/2/26 - 1340 68.3 45.0 43 13.0 W | 280 20.2 WNW | 294 71.6 62.2
5/2/26 - 1330 69.0 43.9 40 11.8 W | 270 19.7 W | 265 71.6 62.2
5/2/26 - 1320 68.4 42.5 39 9.4 W | 264 15.0 WNW | 286 71.6 62.2
5/2/26 - 1310 67.8 43.8 42 8.7 W | 277 12.4 W | 269 71.6 62.2
5/2/26 - 1300 68.0 44.7 43 9.2 W | 265 13.9 W | 276 71.6 62.2
5/2/26 - 1250 68.1 46.6 46 7.9 W | 273 12.7 WNW | 284 71.6 62.2
5/2/26 - 1240 68.4 45.0 43 8.4 W | 268 14.0 W | 260 71.6 62.2
5/2/26 - 1230 68.6 42.4 39 8.8 W | 262 14.8 W | 260 71.6 62.2
5/2/26 - 1220 69.1 38.8 33 11.0 SW | 236 19.3 SW | 233 71.6 62.2
5/2/26 - 1210 68.2 39.9 35 7.8 SW | 236 13.5 WSW | 250 71.6 62.2
5/2/26 - 1200 68.3 41.3 38 6.3 W | 268 11.1 W | 264 71.6 62.2
5/2/26 - 1150 67.6 42.4 40 8.2 WSW | 238 15.9 SW | 216 71.6 62.2
5/2/26 - 1140 67.1 45.4 46 7.7 W | 274 12.9 W | 263 71.6 62.2
5/2/26 - 1130 66.8 45.4 46 8.5 WSW | 256 14.8 WNW | 283 71.6 62.2
5/2/26 - 1120 67.4 45.0 44 7.7 SW | 231 14.8 WSW | 239 71.6 62.2
5/2/26 - 1110 67.4 40.4 37 11.9 SW | 233 18.8 SW | 220 71.6 62.2
5/2/26 - 1100 67.5 41.2 38 6.8 SW | 221 12.7 SW | 235 71.6 62.2
5/2/26 - 1050 66.3 41.7 41 7.8 SW | 219 11.3 SW | 220 71.6 62.2
5/2/26 - 1040 67.4 42.0 40 7.4 SW | 219 13.2 WSW | 245 71.6 62.2
5/2/26 - 1030 66.1 41.2 40 4.9 SW | 235 12.0 SW | 225 71.6 62.2
5/2/26 - 1020 66.0 41.2 40 4.7 WSW | 244 9.5 SSW | 211 71.6 62.2
5/2/26 - 1010 65.9 42.3 42 5.5 WSW | 238 10.4 SW | 233 71.6 62.2
5/2/26 - 1000 70.2 29.0 22 10.4 SE | 142 17.1 SE | 132 71.6 62.2
5/2/26 - 0950 70.6 27.4 20 8.8 ESE | 122 15.9 SE | 144 71.6 62.2
5/2/26 - 0940 69.2 26.4 20 10.8 ESE | 119 17.0 E | 84 70.1 62.2
5/2/26 - 0930 69.0 26.9 21 11.4 E | 94 16.8 E | 82 69.8 62.2
5/2/26 - 0920 69.0 26.4 20 12.2 ESE | 109 19.1 ESE | 113 69.6 62.2
5/2/26 - 0910 68.8 26.0 20 13.1 ESE | 102 19.6 E | 99 69.3 62.2
5/2/26 - 0900 68.6 25.8 20 12.9 ESE | 112 19.4 SE | 138 69.3 62.2
5/2/26 - 0850 68.0 27.1 21 10.3 E | 97 14.3 ESE | 108 68.4 62.2
5/2/26 - 0840 67.5 27.0 22 11.4 E | 92 16.4 E | 79 68.3 62.2
5/2/26 - 0830 67.2 27.1 22 13.6 E | 97 18.8 E | 94 67.6 62.2
5/2/26 - 0820 66.6 27.5 23 13.9 E | 92 18.7 E | 91 66.9 62.2
5/2/26 - 0810 66.2 27.3 23 14.4 E | 91 19.3 E | 95 66.6 62.2
5/2/26 - 0800 65.7 27.5 24 12.8 E | 85 17.7 E | 86 66.0 62.2
5/2/26 - 0750 65.2 28.0 24 11.9 ENE | 78 16.2 E | 79 65.4 62.2
5/2/26 - 0740 64.9 27.2 24 11.8 ENE | 78 14.2 E | 80 65.2 62.2
5/2/26 - 0730 64.8 27.1 24 10.9 ENE | 78 13.4 ENE | 77 64.9 62.2
5/2/26 - 0720 64.8 26.8 24 8.8 E | 83 11.8 ENE | 77 64.9 62.2
5/2/26 - 0710 64.6 27.3 24 7.6 E | 84 10.6 E | 88 64.9 62.2
5/2/26 - 0700 64.7 27.2 24 8.1 E | 97 11.1 E | 100 64.9 62.2
5/2/26 - 0650 64.7 26.6 23 9.7 E | 96 13.8 E | 95 64.9 62.2
5/2/26 - 0640 64.4 26.1 23 10.6 ESE | 102 13.2 E | 94 64.6 62.2
5/2/26 - 0630 64.0 26.4 24 8.7 ESE | 113 10.4 ESE | 109 64.6 62.2
5/2/26 - 0620 64.4 26.6 24 8.0 SE | 129 9.0 SE | 134 64.6 62.2
5/2/26 - 0610 64.4 26.9 24 8.1 SE | 126 9.6 SE | 132 64.4 62.2
5/2/26 - 0600 64.3 27.3 24 6.9 ESE | 116 8.3 ESE | 120 64.4 62.2
5/2/26 - 0550 63.6 27.7 26 5.2 E | 100 7.5 ESE | 107 64.4 62.2
5/2/26 - 0540 63.0 27.7 26 4.3 ENE | 72 5.3 ENE | 76 64.4 62.2
5/2/26 - 0530 63.2 27.0 25 3.8 NE | 51 4.8 ENE | 58 64.4 62.2
5/2/26 - 0520 63.4 26.9 25 3.2 NE | 45 4.0 NE | 39 64.4 62.2
5/2/26 - 0510 63.6 25.0 23 2.2 NNE | 20 3.7 N | 5 64.4 62.2
5/2/26 - 0500 63.5 24.6 23 3.5 NNW | 348 4.2 NNW | 328 64.4 62.2
5/2/26 - 0450 64.0 25.1 23 3.3 NNW | 345 3.9 NNW | 340 64.4 62.2
5/2/26 - 0440 62.8 24.2 23 3.7 NNW | 345 5.5 NNW | 332 64.4 62.2
5/2/26 - 0430 62.7 23.8 22 6.6 NNW | 336 7.7 NNW | 335 64.4 62.2
5/2/26 - 0420 63.3 25.6 24 7.4 N | 1 8.7 N | 0 64.4 62.4
5/2/26 - 0410 63.7 25.5 23 7.3 N | 7 8.2 N | 6 64.4 62.4
5/2/26 - 0400 62.9 25.2 24 7.2 N | 8 7.9 N | 11 64.4 62.4
5/2/26 - 0350 63.6 26.1 24 7.3 N | 2 8.9 N | 6 64.4 62.8
5/2/26 - 0340 63.8 25.4 23 8.2 N | 3 9.1 N | 5 64.4 62.8
5/2/26 - 0330 63.4 26.1 24 8.6 N | 4 9.1 N | 6 64.4 62.8
5/2/26 - 0320 63.4 26.0 24 8.8 N | 6 9.6 N | 7 64.4 62.8
5/2/26 - 0310 63.5 26.1 24 9.2 N | 9 9.9 N | 7 64.4 62.8
5/2/26 - 0300 63.7 25.9 24 9.7 N | 7 10.2 N | 7 64.4 62.8
5/2/26 - 0250 63.4 26.1 24 10.2 N | 7 11.1 N | 7 64.4 62.8
5/2/26 - 0240 63.0 26.7 25 10.5 N | 2 11.0 N | 5 64.4 62.8
5/2/26 - 0230 63.1 26.7 25 9.6 N | 352 11.2 N | 354 64.4 62.9
5/2/26 - 0220 63.4 26.1 24 8.1 NNW | 343 8.6 NNW | 346 64.4 63.3
5/2/26 - 0210 63.6 25.8 24 8.0 NNW | 342 8.6 NNW | 346 64.4 63.5
5/2/26 - 0200 63.6 25.9 24 8.2 N | 356 8.6 N | 2 64.4 63.6
5/2/26 - 0150 63.7 26.0 24 8.7 N | 359 9.4 N | 351 64.4 63.6
5/2/26 - 0140 63.9 25.7 23 8.8 N | 358 9.6 N | 354 64.4 63.7
5/2/26 - 0130 63.9 25.9 23 8.9 N | 358 9.6 N | 0 64.4 63.7
5/2/26 - 0120 63.8 26.3 24 8.6 N | 359 9.8 N | 0 64.4 63.7
5/2/26 - 0110 64.2 25.6 23 9.3 N | 351 10.4 NNW | 346 64.4 64.0
5/2/26 - 0100 64.5 24.9 22 9.6 NNW | 346 10.8 NNW | 344 70.2 53.7
5/2/26 - 0050 64.6 24.7 22 10.1 NNW | 343 11.7 NNW | 340 70.2 53.7
5/2/26 - 0040 64.4 25.2 22 8.8 N | 351 10.4 NNW | 342 70.2 53.7
5/2/26 - 0030 64.6 24.6 22 9.2 NNW | 344 10.7 NNW | 339 70.2 53.7
5/2/26 - 0020 64.6 24.8 22 9.2 NNW | 346 11.0 NNW | 348 70.2 53.7
5/2/26 - 0010 64.5 24.8 22 9.7 N | 349 11.8 NNW | 336 70.2 53.7
5/2/26 - 0000 64.4 25.3 23 9.0 N | 355 11.7 N | 351 70.2 53.7
5/1/26 - 2350 64.8 24.3 21 9.9 NNW | 347 11.4 NNW | 344 70.2 53.7
5/1/26 - 2340 64.9 24.0 21 10.8 N | 349 12.1 NNW | 343 70.2 53.7
5/1/26 - 2330 63.8 25.6 23 8.9 N | 359 10.6 N | 1 70.2 53.7
5/1/26 - 2320 64.0 25.4 23 9.5 N | 356 10.5 NNW | 348 70.2 53.7
5/1/26 - 2310 63.4 25.9 24 10.8 N | 351 11.8 N | 352 70.2 53.7
5/1/26 - 2300 62.8 28.6 27 11.1 N | 355 11.9 N | 354 70.2 53.7
5/1/26 - 2250 62.7 29.2 28 10.8 N | 353 11.6 N | 354 70.2 53.7
5/1/26 - 2240 62.6 30.1 29 11.8 N | 353 12.6 N | 354 70.2 53.7
5/1/26 - 2230 61.9 36.2 39 11.8 N | 1 12.6 N | 0 70.2 53.7
5/1/26 - 2220 61.5 41.2 47 10.8 N | 7 11.8 N | 5 70.2 53.7
5/1/26 - 2210 61.1 44.9 55 10.6 NNE | 17 11.4 NNE | 15 70.2 53.7
5/1/26 - 2200 61.2 45.7 57 9.4 NNE | 13 10.4 NNE | 15 70.2 53.7
5/1/26 - 2150 60.7 45.8 58 8.2 N | 11 9.5 NNE | 12 70.2 53.7
5/1/26 - 2140 60.8 45.9 58 8.8 N | 6 9.4 N | 354 70.2 53.7
5/1/26 - 2130 60.3 46.0 59 9.4 N | 2 10.2 N | 5 70.2 53.7
5/1/26 - 2120 60.0 47.4 63 9.6 N | 358 10.2 N | 1 70.2 53.7
5/1/26 - 2110 60.0 47.3 63 9.8 N | 0 11.2 N | 354 70.2 53.7
5/1/26 - 2100 60.8 45.1 56 12.2 N | 351 14.0 NNW | 348 70.2 53.7
5/1/26 - 2050 61.3 43.3 51 13.1 NNW | 346 14.4 NNW | 342 70.2 53.7
5/1/26 - 2040 62.3 39.5 43 13.6 NNW | 339 15.0 NNW | 344 70.2 53.7
5/1/26 - 2030 62.8 36.0 37 13.5 NW | 326 15.4 NW | 326 70.2 53.7
5/1/26 - 2020 63.2 32.4 31 14.2 NNW | 327 15.9 NNW | 328 70.2 53.7
5/1/26 - 2010 63.5 31.2 30 14.7 NNW | 330 18.5 NNW | 331 70.2 53.7
5/1/26 - 2000 63.2 33.0 32 14.6 NNW | 330 17.2 NNW | 334 70.2 53.7
5/1/26 - 1950 63.3 36.4 37 16.0 NNW | 331 18.0 NNW | 329 70.2 53.7
5/1/26 - 1940 62.6 43.6 50 15.3 NW | 326 18.3 NNW | 328 70.2 53.7
5/1/26 - 1930 62.6 46.7 56 13.9 NW | 323 16.8 NW | 322 70.2 53.7
5/1/26 - 1920 62.8 47.5 57 13.9 NW | 320 16.5 NW | 326 70.2 53.7
5/1/26 - 1910 62.9 49.2 61 12.8 NW | 324 15.1 NW | 324 70.2 53.7
5/1/26 - 1900 63.3 49.2 60 12.5 NW | 322 15.3 NW | 320 70.2 53.7
5/1/26 - 1850 63.9 48.5 57 14.0 NW | 317 16.6 NW | 322 70.2 53.7
5/1/26 - 1840 64.5 47.8 55 12.0 NW | 318 17.2 NW | 315 70.2 53.7
5/1/26 - 1830 64.9 49.5 57 10.4 WNW | 299 14.3 WNW | 301 70.2 53.7
Max 71.0 49.5 63 16.0 - 22.8 - 72.0 64.0
Avg 65.5 34.6 33 10.2 - 13.8 - - -
Min 60.0 23.8 20 2.2 - 3.7 - 64.4 53.7